Latest Coastal Weather Observations for Roebourne Airport

IDW60701

Issued at 10:22 pm WST Friday 12 February 2016 (issued every 10 minutes, with the page automatically refreshed every 10 minutes)

About coastal observations | Map of coastal stations | Coastal observations for WA | Marine services | Other Formats
Station Details ID: 004090 Name: ROEBOURNE AERO Lat: -20.76 Lon: 117.16 Height: 10.7 m
Data from the previous 72 hours. | See also: Recent months at Roebourne Airport
Date/Time
WST
Temp

°C
Wind Pressure Rain
since 9am
mm
Weather Cloud Vis
km
Sea
Height
m
Swell
Dir
 
Speed
knots
Gust
knots
hPa Trend Height
m
Period
s
Dir
12/10:00pm 32.1 W 9 12 1007.5 - 0.0 - - - - - - -
12/09:30pm 32.6 WSW 8 12 1007.4 - 0.0 - - - - - - -
12/09:00pm 33.5 WSW 7 10 1007.1 - 0.0 - - - - - - -
12/08:30pm 33.7 W 6 8 1006.9 - 0.0 - - - - - - -
12/08:00pm 34.6 W 6 8 1006.5 - 0.0 - - - - - - -
12/07:30pm 35.3 WNW 8 11 1006.0 - 0.0 - - - - - - -
12/07:00pm 36.3 WNW 8 11 1005.8 - 0.0 - - - - - - -
12/06:30pm 37.3 WNW 10 12 1005.5 - 0.0 - - - - - - -
12/06:00pm 38.3 WNW 11 15 1005.1 - 0.0 - - - - - - -
12/05:30pm 39.5 NW 12 16 1004.8 - 0.0 - - - - - - -
12/05:00pm 39.4 NNW 13 17 1004.7 - 0.0 - - - - - - -
12/04:30pm 40.3 NNW 13 17 1004.4 - 0.0 - - - - - - -
12/04:00pm 42.3 N 16 20 1004.3 - 0.0 - - - - - - -
12/03:30pm 43.4 N 15 19 1004.3 - 0.0 - - - - - - -
12/03:00pm 43.6 N 16 20 1004.6 - 0.0 - - - - - - -
12/02:30pm 44.1 N 16 19 1004.9 - 0.0 - - - - - - -
12/02:00pm 44.6 NNE 16 23 1005.2 - 0.0 - - - - - - -
12/01:30pm 45.2 NNE 16 20 1005.4 - 0.0 - - - - - - -
12/01:00pm 44.9 NNE 13 17 1005.7 - 0.0 - - - - - - -
12/12:30pm 45.7 NNE 15 19 1006.0 - 0.0 - - - - - - -
12/12:00pm 45.1 NE 12 18 1006.5 - 0.0 - - - - - - -
12/11:30am 45.1 ENE 12 18 1006.7 - 0.0 - - - - - - -
12/11:00am 44.4 ENE 12 17 1007.1 - 0.0 - - - - - - -
12/10:30am 44.1 ENE 11 17 1007.5 - 0.0 - - - - - - -
12/10:00am 44.1 E 12 16 1008.0 - 0.0 - - - - - - -
12/09:30am 42.8 ESE 13 17 1008.1 - 0.0 - - - - - - -
12/09:00am 42.5 SE 10 15 1008.2 - 0.0 - - - - - - -
12/08:30am 38.9 CALM 0 3 1008.3 - 0.0 - - - - - - -
12/08:00am 36.6 SE 2 3 1008.3 - 0.0 - - - - - - -
12/07:30am 34.2 SE 3 4 1008.2 - 0.0 - - - - - - -
12/07:26am 34.1 SSE 1 4 1008.1 - 0.0 - - - - - - -
12/07:00am 29.1 CALM 0 0 1008.0 - 0.0 - - - - - - -
12/06:30am 25.7 CALM 0 0 1007.7 - 0.0 - - - - - - -
12/06:00am 24.9 NNW 2 3 1007.5 - 0.0 - - - - - - -
12/05:30am 25.1 CALM 0 0 1007.3 - 0.0 - - - - - - -
12/05:00am 27.9 SW 3 4 1007.1 - 0.0 - - - - - - -
12/04:30am 27.1 SW 8 9 1007.0 - 0.0 - - - - - - -
12/04:00am 27.3 SW 7 8 1006.8 - 0.0 - - - - - - -
12/03:30am 27.6 SW 5 7 1006.7 - 0.0 - - - - - - -
12/03:00am 27.9 SW 5 6 1006.6 - 0.0 - - - - - - -
12/02:30am 28.8 SW 7 8 1006.7 - 0.0 - - - - - - -
12/02:00am 29.8 W 4 5 1006.9 - 0.0 - - - - - - -
12/01:30am 30.1 SW 7 9 1007.1 - 0.0 - - - - - - -
12/01:00am 31.1 SW 7 9 1007.3 - 0.0 - - - - - - -
12/12:30am 29.6 SW 6 7 1007.6 - 0.0 - - - - - - -
12/12:00am 28.9 W 3 5 1008.0 - 0.0 - - - - - - -
 
Date/Time
WST
Temp

°C
Wind Pressure Rain
since 9am
mm
Weather Cloud Vis
km
Sea
Height
m
Swell
Dir
 
Speed
knots
Gust
knots
hPa Trend Height
m
Period
s
Dir
11/11:30pm 28.8 W 3 3 1008.2 - 0.0 - - - - - - -
11/11:00pm 29.2 WSW 3 4 1008.3 - 0.0 - - - - - - -
11/10:30pm 29.4 SSW 4 5 1008.4 - 0.0 - - - - - - -
11/10:00pm 31.0 WSW 1 3 1008.3 - 0.0 - - - - - - -
11/09:30pm 32.5 W 1 3 1008.2 - 0.0 - - - - - - -
11/09:00pm 33.5 W 4 6 1008.0 - 0.0 - - - - - - -
11/08:30pm 35.0 W 6 7 1007.5 - 0.0 - - - - - - -
11/08:00pm 35.6 W 7 8 1007.2 - 0.0 - - - - - - -
11/07:30pm 36.5 W 7 8 1006.9 - 0.0 - - - - - - -
11/07:00pm 37.8 WNW 7 9 1006.5 - 0.0 - - - - - - -
11/06:30pm 38.9 WNW 10 14 1006.1 - 0.0 - - - - - - -
11/06:00pm 40.5 NW 12 14 1005.7 - 0.0 - - - - - - -
11/05:30pm 42.3 N 13 15 1005.1 - 0.0 - - - - - - -
11/05:00pm 43.0 N 14 17 1004.8 - 0.0 - - - - - - -
11/04:30pm 43.8 N 15 17 1004.5 - 0.0 - - - - - - -
11/04:00pm 44.4 NNE 17 19 1004.7 - 0.0 - - - - - - -
11/03:30pm 45.2 NNE 14 17 1004.7 - 0.0 - - - - - - -
11/03:00pm 45.3 NNE 13 17 1004.9 - 0.0 - - - - - - -
11/02:30pm 46.1 NNE 10 14 1005.2 - 0.0 - - - - - - -
11/02:00pm 45.1 NNE 10 14 1005.6 - 0.0 - - - - - - -
11/01:30pm 44.8 N 11 15 1005.9 - 0.0 - - - - - - -
11/01:00pm 45.5 NNE 12 16 1006.3 - 0.0 - - - - - - -
11/12:30pm 44.7 NE 13 17 1006.6 - 0.0 - - - - - - -
11/12:00pm 45.3 ENE 13 19 1006.9 - 0.0 - - - - - - -
11/11:30am 45.3 E 15 22 1007.2 - 0.0 - - - - - - -
11/11:00am 44.7 ENE 10 19 1007.4 - 0.0 - - - - - - -
11/10:30am 44.0 ESE 6 10 1007.7 - 0.0 - - - - - - -
11/10:00am 43.4 SE 7 10 1008.1 - 0.0 - - - - - - -
11/09:30am 42.4 SSE 5 8 1008.5 - 0.0 - - - - - - -
11/09:00am 39.5 SE 2 5 1008.8 - 0.0 - - - - - - -
11/08:30am 36.9 N 1 3 1008.9 - 0.0 - - - - - - -
11/08:00am 34.1 N 3 4 1008.9 - 0.0 - - - - - - -
11/07:30am 31.4 N 2 3 1008.8 - 0.0 - - - - - - -
11/07:00am 28.6 ENE 3 4 1008.6 - 0.0 - - - - - - -
11/06:30am 25.0 CALM 0 0 1008.3 - 0.0 - - - - - - -
11/06:00am 25.1 CALM 0 0 1008.0 - 0.0 - - - - - - -
11/05:30am 24.4 ESE 3 5 1007.6 - 0.0 - - - - - - -
11/05:00am 24.5 ENE 3 10 1007.5 - 0.0 - - - - - - -
11/04:30am 25.4 ENE 1 4 1007.3 - 0.0 - - - - - - -
11/04:00am 24.9 E 2 5 1007.2 - 0.0 - - - - - - -
11/03:30am 25.7 ENE 1 4 1007.0 - 0.0 - - - - - - -
11/03:00am 26.8 SW 6 6 1006.8 - 0.0 - - - - - - -
11/02:30am 28.1 WSW 5 6 1006.8 - 0.0 - - - - - - -
11/02:00am 28.3 SW 5 6 1006.7 - 0.0 - - - - - - -
11/01:30am 28.5 SW 4 5 1006.8 - 0.0 - - - - - - -
11/01:00am 29.0 SW 3 4 1007.0 - 0.0 - - - - - - -
11/12:30am 29.1 SW 6 6 1007.3 - 0.0 - - - - - - -
11/12:00am 28.7 SW 5 6 1007.7 - 0.0 - - - - - - -
 
Date/Time
WST
Temp

°C
Wind Pressure Rain
since 9am
mm
Weather Cloud Vis
km
Sea
Height
m
Swell
Dir
 
Speed
knots
Gust
knots
hPa Trend Height
m
Period
s
Dir
10/11:30pm 29.2 SW 3 5 1008.0 - 0.0 - - - - - - -
10/11:00pm 30.3 WSW 4 5 1008.2 - 0.0 - - - - - - -
10/10:30pm 31.0 WNW 4 5 1008.2 - 0.0 - - - - - - -
10/10:00pm 31.1 CALM 0 0 1008.3 - 0.0 - - - - - - -
10/09:30pm 33.1 W 4 4 1008.1 - 0.0 - - - - - - -
10/09:00pm 34.1 SW 5 7 1008.0 - 0.0 - - - - - - -
10/08:30pm 35.1 WSW 6 9 1007.9 - 0.0 - - - - - - -
10/08:00pm 35.4 W 6 8 1007.4 - 0.0 - - - - - - -
10/07:30pm 35.6 W 7 8 1007.1 - 0.0 - - - - - - -
10/07:00pm 36.6 WNW 9 11 1006.8 - 0.0 - - - - - - -
10/06:30pm 38.3 NW 9 11 1006.4 - 0.0 - - - - - - -
10/06:00pm 39.3 NW 10 13 1006.0 - 0.0 - - - - - - -
10/05:30pm 40.0 N 12 15 1005.8 - 0.0 - - - - - - -
10/05:00pm 41.5 N 14 17 1005.5 - 0.0 - - - - - - -
10/04:30pm 42.0 N 15 19 1005.3 - 0.0 - - - - - - -
10/04:00pm 42.2 NNE 15 18 1005.3 - 0.0 - - - - - - -
10/03:30pm 42.8 NNE 16 21 1005.4 - 0.0 - - - - - - -
10/03:00pm 43.1 NNE 18 23 1005.5 - 0.0 - - - - - - -
10/02:30pm 44.9 NNE 15 21 1005.3 - 0.0 - - - - - - -
10/02:00pm 45.2 NNE 14 19 1005.5 - 0.0 - - - - - - -
10/01:30pm 45.3 NNE 17 22 1005.9 - 0.0 - - - - - - -
10/01:00pm 45.4 NE 13 22 1006.2 - 0.0 - - - - - - -
10/12:30pm 45.5 NNE 11 20 1006.6 - 0.0 - - - - - - -
10/12:00pm 45.1 ENE 14 20 1007.1 - 0.0 - - - - - - -
10/11:30am 44.6 E 12 19 1007.4 - 0.0 - - - - - - -
10/11:00am 44.3 ESE 12 19 1007.9 - 0.0 - - - - - - -
10/10:30am 43.8 ESE 12 21 1008.2 - 0.0 - - - - - - -
10/10:00am 43.1 SSE 8 13 1008.6 - 0.0 - - - - - - -
10/09:30am 41.4 S 11 15 1008.8 - 0.0 - - - - - - -
10/09:00am 39.8 S 10 14 1009.0 - 0.0 - - - - - - -
10/08:30am 37.7 SSW 10 13 1008.9 - 0.0 - - - - - - -
10/08:00am 34.5 SW 6 9 1009.0 - 0.0 - - - - - - -
10/07:30am 32.1 SW 7 9 1009.0 - 0.0 - - - - - - -
10/07:00am 28.7 SW 5 5 1009.2 - 0.0 - - - - - - -
10/06:30am 25.7 W 4 4 1009.1 - 0.0 - - - - - - -
10/06:00am 25.1 WSW 5 5 1008.6 - 0.0 - - - - - - -
10/05:30am 25.4 WSW 4 4 1008.5 - 0.0 - - - - - - -
10/05:00am 26.1 WSW 3 5 1008.3 - 0.0 - - - - - - -
10/04:30am 26.8 WSW 5 6 1008.1 - 0.0 - - - - - - -
10/04:00am 25.9 SW 3 4 1008.0 - 0.0 - - - - - - -
10/03:30am 26.7 SSE 3 5 1008.0 - 0.0 - - - - - - -
10/03:00am 28.0 WSW 5 7 1007.9 - 0.0 - - - - - - -
10/02:30am 28.5 WSW 7 9 1007.7 - 0.0 - - - - - - -
10/02:00am 28.9 WSW 7 9 1007.7 - 0.0 - - - - - - -
10/01:30am 28.8 W 8 9 1007.6 - 0.0 - - - - - - -
10/01:00am 29.2 W 7 9 1008.1 - 0.0 - - - - - - -
10/12:30am 29.4 W 6 7 1008.5 - 0.0 - - - - - - -
10/12:00am 29.6 W 2 3 1008.9 - 0.0 - - - - - - -
 
Date/Time
WST
Temp

°C
Wind Pressure Rain
since 9am
mm
Weather Cloud Vis
km
Sea
Height
m
Swell
Dir
 
Speed
knots
Gust
knots
hPa Trend Height
m
Period
s
Dir
09/11:30pm 30.1 W 5 7 1008.8 - 0.0 - - - - - - -
09/11:00pm 29.9 WNW 4 6 1009.0 - 0.0 - - - - - - -
09/10:30pm 31.0 WNW 7 8 1009.0 - 0.0 - - - - - - -

Other Formats:

Comma delimited format used in spreadsheet applications
http://www.bom.gov.au/fwo/IDW60701/IDW60701.94308.axf

JavaScript Object Notation format (JSON) in row-major order
http://www.bom.gov.au/fwo/IDW60701/IDW60701.94308.json